Liberdade, Brazil
Current Conditions -  °F | °C
As of 7:30 PM on Friday 21 Nov 2014 (Local Time) from SBJF Reporting Station
Few Clouds Few Clouds  
Wind Chill: 82°   Ceiling: Unl
Heat Index: 82°   Visibility: 6mi
Dew Point: 55°   Wind: 7mph
Humidity: 39%   Direction: 60°ENE
Pressure: 30"   Gusts: NA
Location:  22.03°S, 44.32°W
Report Text: SBJF 212130Z 06006KT 9999 FEW025 28/13 Q1016
Loading
Personal Weather Stations






























Interactive Weather Map New forecast layout! Learn more

10-Day Weather Forecast

Advertisements
Track Severe Weather on mobile